createdAt,value
2019-05-23T00:02:30.462Z,10.40
2019-05-23T00:07:36.754Z,10.40
2019-05-23T00:12:44.883Z,10.20
2019-05-23T00:17:49.242Z,10.30
2019-05-23T00:22:53.937Z,10.40
2019-05-23T00:27:58.729Z,10.20
2019-05-23T00:33:04.031Z,10.10
2019-05-23T00:38:09.535Z,10.00
2019-05-23T00:43:13.196Z,10.20
2019-05-23T00:48:18.529Z,10.20
2019-05-23T00:53:23.510Z,10.30
2019-05-23T00:58:27.346Z,10.20
2019-05-23T01:03:32.376Z,10.20
2019-05-23T01:08:37.070Z,10.10
2019-05-23T01:13:41.770Z,10.30
2019-05-23T01:18:46.271Z,10.20
2019-05-23T01:23:58.201Z,10.10
2019-05-23T01:29:03.301Z,10.00
2019-05-23T01:34:08.869Z,9.80
2019-05-23T01:39:12.701Z,9.70
2019-05-23T01:44:17.503Z,9.80
2019-05-23T01:49:22.191Z,9.80
2019-05-23T01:54:26.029Z,9.80
2019-05-23T01:59:30.057Z,9.80
2019-05-23T02:04:34.382Z,9.70
2019-05-23T02:09:38.889Z,9.60
2019-05-23T02:14:44.320Z,9.50
2019-05-23T02:19:48.113Z,9.50
2019-05-23T02:24:53.817Z,9.40
2019-05-23T02:29:58.038Z,9.40
2019-05-23T02:35:02.656Z,9.40
2019-05-23T02:40:18.938Z,9.30
2019-05-23T02:45:41.303Z,9.30
2019-05-23T02:50:49.596Z,9.40
2019-05-23T02:55:57.709Z,9.30
2019-05-23T03:01:51.891Z,9.10
2019-05-23T03:06:57.183Z,9.20
2019-05-23T03:12:01.973Z,9.30
2019-05-23T03:17:10.278Z,9.20
2019-05-23T03:22:33.253Z,9.00
2019-05-23T03:27:45.206Z,8.80
2019-05-23T03:32:51.190Z,9.00
2019-05-23T03:37:55.570Z,9.00
2019-05-23T03:42:59.925Z,9.00
2019-05-23T03:48:06.382Z,9.00
2019-05-23T03:53:11.218Z,8.90
2019-05-23T03:58:16.709Z,9.00
2019-05-23T04:03:20.710Z,8.80
2019-05-23T04:08:24.784Z,8.90
2019-05-23T04:13:28.630Z,9.00
2019-05-23T04:18:32.477Z,8.90
2019-05-23T04:23:36.131Z,8.70
2019-05-23T04:28:41.106Z,8.80
2019-05-23T04:33:45.214Z,9.00
2019-05-23T04:38:49.134Z,9.10
2019-05-23T04:43:52.719Z,9.20
2019-05-23T04:48:56.364Z,9.20
2019-05-23T04:54:01.860Z,9.30
2019-05-23T04:59:06.478Z,9.40
2019-05-23T05:04:10.779Z,9.70
2019-05-23T05:09:16.049Z,9.90
2019-05-23T05:14:19.870Z,10.10
2019-05-23T05:19:24.022Z,10.30
2019-05-23T05:24:28.166Z,10.50
2019-05-23T05:29:31.900Z,10.60
2019-05-23T05:34:35.954Z,10.90
2019-05-23T05:39:39.634Z,11.30
2019-05-23T05:44:45.327Z,11.40
2019-05-23T05:49:49.022Z,11.60
2019-05-23T05:54:52.706Z,12.00
2019-05-23T05:59:56.347Z,12.20
2019-05-23T06:05:00.077Z,12.50
2019-05-23T06:10:05.656Z,12.80
2019-05-23T06:15:09.885Z,13.10
2019-05-23T06:20:14.414Z,13.30
2019-05-23T06:25:18.636Z,13.40
2019-05-23T06:30:22.870Z,13.70
2019-05-23T06:35:27.498Z,13.80
2019-05-23T06:40:32.787Z,14.00
2019-05-23T06:45:38.368Z,14.30
2019-05-23T06:50:42.107Z,14.50
2019-05-23T06:55:45.753Z,14.80
2019-05-23T07:00:49.685Z,14.90
2019-05-23T07:05:53.878Z,15.10
2019-05-23T07:10:57.601Z,15.20
2019-05-23T07:16:01.442Z,15.50
2019-05-23T07:21:05.755Z,15.60
2019-05-23T07:26:09.501Z,15.90
2019-05-23T07:31:13.171Z,15.90
2019-05-23T07:36:17.202Z,16.10
2019-05-23T07:41:21.038Z,16.30
2019-05-23T07:46:24.870Z,16.50
2019-05-23T07:51:29.874Z,16.70
2019-05-23T07:56:35.327Z,17.10
2019-05-23T08:01:44.711Z,17.10
2019-05-23T08:07:09.344Z,17.40
2019-05-23T08:12:13.745Z,17.60
2019-05-23T08:17:17.857Z,17.60
2019-05-23T08:22:21.573Z,17.80
2019-05-23T08:27:25.530Z,18.20
2019-05-23T08:32:29.589Z,18.40
2019-05-23T08:37:34.185Z,18.80
2019-05-23T08:42:38.678Z,18.90
2019-05-23T08:47:42.328Z,19.00
2019-05-23T08:52:46.181Z,19.00
2019-05-23T08:57:50.783Z,19.40
2019-05-23T09:02:58.481Z,19.80
2019-05-23T09:08:00.269Z,20.00
2019-05-23T09:13:04.290Z,20.30
2019-05-23T09:18:08.342Z,20.30
2019-05-23T09:23:12.488Z,20.60
2019-05-23T09:28:17.500Z,20.70
2019-05-23T09:33:21.158Z,20.80
2019-05-23T09:38:24.995Z,20.80
2019-05-23T09:43:28.641Z,21.10
2019-05-23T09:48:32.471Z,21.30
2019-05-23T09:53:36.670Z,21.60
2019-05-23T09:58:40.252Z,21.70
2019-05-23T10:03:43.982Z,21.80
2019-05-23T10:08:47.911Z,22.20
2019-05-23T10:13:51.576Z,22.40
2019-05-23T10:18:55.150Z,22.40
2019-05-23T10:23:59.286Z,22.50
2019-05-23T10:29:03.016Z,22.50
2019-05-23T10:34:07.377Z,22.60
2019-05-23T10:39:13.287Z,23.00
2019-05-23T10:44:17.815Z,22.90
2019-05-23T10:49:21.430Z,23.30
2019-05-23T10:54:25.527Z,23.20
2019-05-23T10:59:29.146Z,23.30
2019-05-23T11:04:32.973Z,23.50
2019-05-23T11:09:38.509Z,23.10
2019-05-23T11:14:41.980Z,23.50
2019-05-23T11:19:45.816Z,23.70
2019-05-23T11:24:49.805Z,24.00
2019-05-23T11:29:53.477Z,23.90
2019-05-23T11:34:57.194Z,24.30
2019-05-23T11:40:00.965Z,24.60
2019-05-23T11:45:07.413Z,24.80
2019-05-23T11:50:11.752Z,24.70
2019-05-23T11:55:16.692Z,24.90
2019-05-23T12:00:23.978Z,24.80
2019-05-23T12:05:29.871Z,25.00
2019-05-23T12:10:33.638Z,24.80
2019-05-23T12:15:38.860Z,25.10
2019-05-23T12:20:42.579Z,25.20
2019-05-23T12:25:46.805Z,25.30
2019-05-23T12:30:50.467Z,25.60
2019-05-23T12:35:54.452Z,25.70
2019-05-23T12:40:58.378Z,25.90
2019-05-23T12:46:02.177Z,26.00
2019-05-23T12:51:07.921Z,26.00
2019-05-23T12:56:11.797Z,26.00
2019-05-23T13:01:16.618Z,26.30
2019-05-23T13:06:22.152Z,26.40
2019-05-23T13:11:26.275Z,26.10
2019-05-23T13:16:30.266Z,25.90
2019-05-23T13:21:33.896Z,25.30
2019-05-23T13:26:37.717Z,25.70
2019-05-23T13:31:41.545Z,25.90
2019-05-23T13:36:45.488Z,26.20
2019-05-23T13:41:49.074Z,25.80
2019-05-23T13:46:53.654Z,25.90
2019-05-23T13:51:57.377Z,26.20
2019-05-23T13:57:01.718Z,26.40
2019-05-23T14:02:07.314Z,26.10
2019-05-23T14:07:12.539Z,25.60
2019-05-23T14:12:21.450Z,25.90
2019-05-23T14:17:33.449Z,25.60
2019-05-23T14:22:38.903Z,26.00
2019-05-23T14:27:53.392Z,26.00
2019-05-23T14:32:59.077Z,26.10
2019-05-23T14:38:05.756Z,25.80
2019-05-23T14:43:17.230Z,25.80
2019-05-23T14:48:25.844Z,25.60
2019-05-23T14:53:37.372Z,25.30
2019-05-23T14:58:41.393Z,25.00
2019-05-23T15:03:46.175Z,24.90
2019-05-23T15:08:51.721Z,25.40
2019-05-23T15:13:56.177Z,25.70
2019-05-23T15:19:00.615Z,25.40
2019-05-23T15:24:04.625Z,25.10
2019-05-23T15:29:08.347Z,25.10
2019-05-23T15:34:12.073Z,25.00
2019-05-23T15:39:16.696Z,24.70
2019-05-23T15:44:26.800Z,24.80
2019-05-23T15:49:26.300Z,24.50
2019-05-23T15:54:31.793Z,24.30
2019-05-23T15:59:37.301Z,24.30
2019-05-23T16:04:41.833Z,24.60
2019-05-23T16:09:45.785Z,24.30
2019-05-23T16:14:49.510Z,24.40
2019-05-23T16:19:53.229Z,24.00
2019-05-23T16:24:57.249Z,24.30
2019-05-23T16:30:00.892Z,24.20
2019-05-23T16:35:05.926Z,23.80
2019-05-23T16:40:09.860Z,24.10
2019-05-23T16:45:13.885Z,23.80
2019-05-23T16:50:17.683Z,23.70
2019-05-23T16:55:35.219Z,23.60
2019-05-23T17:00:55.862Z,23.40
2019-05-23T17:06:01.461Z,23.40
2019-05-23T17:11:12.988Z,23.20
2019-05-23T17:16:27.494Z,23.30
2019-05-23T17:21:39.116Z,23.30
2019-05-23T17:26:50.208Z,22.90
2019-05-23T17:31:55.979Z,22.90
2019-05-23T17:36:59.624Z,22.70
2019-05-23T17:42:03.546Z,22.60
2019-05-23T17:47:07.229Z,22.50
2019-05-23T17:52:11.525Z,22.40
2019-05-23T17:57:15.524Z,22.00
2019-05-23T18:02:20.079Z,22.20
2019-05-23T18:07:24.133Z,22.20
2019-05-23T18:12:27.919Z,21.80
2019-05-23T18:17:32.337Z,21.80
2019-05-23T18:22:37.845Z,21.80
2019-05-23T18:27:42.437Z,21.60
2019-05-23T18:32:47.371Z,21.60
2019-05-23T18:37:51.025Z,21.50
2019-05-23T18:42:54.742Z,21.40
2019-05-23T18:47:59.661Z,21.00
2019-05-23T18:53:04.383Z,20.80
2019-05-23T18:58:09.607Z,20.70
2019-05-23T19:03:13.530Z,20.50
2019-05-23T19:08:17.199Z,20.40
2019-05-23T19:13:21.215Z,19.90
2019-05-23T19:18:25.137Z,19.30
2019-05-23T19:23:29.425Z,19.00
2019-05-23T19:28:34.054Z,18.40
2019-05-23T19:33:38.381Z,18.40
2019-05-23T19:38:42.386Z,18.20
2019-05-23T19:43:48.189Z,17.80
2019-05-23T19:48:52.843Z,17.30
2019-05-23T19:53:57.040Z,17.20
2019-05-23T19:59:00.965Z,16.80
2019-05-23T20:04:06.941Z,16.70
2019-05-23T20:09:12.715Z,16.20
2019-05-23T20:14:16.376Z,16.30
2019-05-23T20:19:19.962Z,16.10
2019-05-23T20:24:23.901Z,16.00
2019-05-23T20:29:28.623Z,16.10
2019-05-23T20:34:32.285Z,15.70
2019-05-23T20:39:35.875Z,15.60
2019-05-23T20:44:39.598Z,15.70
2019-05-23T20:49:43.266Z,15.80
2019-05-23T20:54:47.324Z,15.80
2019-05-23T20:59:51.310Z,15.70
2019-05-23T21:04:55.038Z,15.20
2019-05-23T21:09:58.755Z,15.00
2019-05-23T21:15:02.897Z,14.80
2019-05-23T21:20:07.210Z,14.80
2019-05-23T21:25:11.028Z,15.00
2019-05-23T21:30:14.820Z,15.10
2019-05-23T21:35:19.231Z,14.80
2019-05-23T21:40:38.231Z,15.00
2019-05-23T21:45:42.483Z,15.00
2019-05-23T21:50:46.549Z,14.80
2019-05-23T21:55:50.480Z,14.70
2019-05-23T22:01:08.238Z,14.40
2019-05-23T22:06:14.491Z,14.30
2019-05-23T22:11:18.310Z,14.40
2019-05-23T22:16:22.752Z,14.50
2019-05-23T22:21:26.487Z,14.50
2019-05-23T22:26:30.454Z,14.20
2019-05-23T22:31:34.429Z,14.20
2019-05-23T22:36:38.187Z,14.30
2019-05-23T22:41:42.121Z,14.10
2019-05-23T22:46:45.897Z,13.50
2019-05-23T22:51:49.476Z,13.30
2019-05-23T22:56:53.072Z,13.40
2019-05-23T23:01:56.720Z,13.60
2019-05-23T23:07:00.707Z,13.50
2019-05-23T23:12:04.441Z,13.50
2019-05-23T23:17:08.266Z,13.50
2019-05-23T23:22:13.653Z,13.50
2019-05-23T23:27:17.581Z,13.60
2019-05-23T23:32:21.749Z,13.60
2019-05-23T23:37:25.825Z,13.40
2019-05-23T23:42:29.589Z,13.50
2019-05-23T23:47:51.518Z,13.40
2019-05-23T23:53:12.984Z,13.30
2019-05-23T23:58:15.997Z,13.10
